createdAt,value
2022-12-03T00:02:08.404Z,12.38
2022-12-03T00:04:53.672Z,14.00
2022-12-03T00:07:38.607Z,12.95
2022-12-03T00:10:23.559Z,10.13
2022-12-03T00:13:08.417Z,11.52
2022-12-03T00:15:53.576Z,10.90
2022-12-03T00:18:38.818Z,9.70
2022-12-03T00:21:24.862Z,9.25
2022-12-03T00:24:10.191Z,7.30
2022-12-03T00:26:55.558Z,9.48
2022-12-03T00:29:40.292Z,8.82
2022-12-03T00:32:25.473Z,8.32
2022-12-03T00:35:10.214Z,11.18
2022-12-03T00:37:55.901Z,10.17
2022-12-03T00:40:41.414Z,10.55
2022-12-03T00:43:26.357Z,10.32
2022-12-03T00:46:11.254Z,10.15
2022-12-03T00:48:56.397Z,6.95
2022-12-03T00:51:41.560Z,8.77
2022-12-03T00:54:31.566Z,10.20
2022-12-03T00:57:16.988Z,9.05
2022-12-03T01:00:02.105Z,10.52
2022-12-03T01:02:47.042Z,9.48
2022-12-03T01:05:32.019Z,9.33
2022-12-03T01:08:16.926Z,8.40
2022-12-03T01:11:02.048Z,8.48
2022-12-03T01:13:47.307Z,7.45
2022-12-03T01:16:32.843Z,8.25
2022-12-03T01:19:18.261Z,8.67
2022-12-03T01:22:03.053Z,8.13
2022-12-03T01:24:48.367Z,7.10
2022-12-03T01:27:33.453Z,8.07
2022-12-03T01:30:18.421Z,7.55
2022-12-03T01:33:03.291Z,6.00
2022-12-03T01:35:48.469Z,7.43
2022-12-03T01:38:33.656Z,5.25
2022-12-03T01:41:20.312Z,6.70
2022-12-03T01:44:20.834Z,7.28
2022-12-03T01:47:10.475Z,7.00
2022-12-03T01:50:01.443Z,8.10
2022-12-03T01:52:46.688Z,7.50
2022-12-03T01:55:31.732Z,6.25
2022-12-03T01:58:21.326Z,3.85
2022-12-03T02:01:16.320Z,3.80
2022-12-03T02:04:01.450Z,6.30
2022-12-03T02:06:46.501Z,7.30
2022-12-03T02:09:31.698Z,7.80
2022-12-03T02:12:22.325Z,8.50
2022-12-03T02:15:09.085Z,10.37
2022-12-03T02:17:55.330Z,10.80
2022-12-03T02:21:01.153Z,7.90
2022-12-03T02:24:10.491Z,8.52
2022-12-03T02:26:55.448Z,7.95
2022-12-03T02:29:40.556Z,7.70
2022-12-03T02:32:25.976Z,6.15
2022-12-03T02:35:17.282Z,6.75
2022-12-03T02:38:11.151Z,6.25
2022-12-03T02:40:59.409Z,7.10
2022-12-03T02:43:44.375Z,6.47
2022-12-03T02:46:29.952Z,8.30
2022-12-03T02:49:15.008Z,8.30
2022-12-03T02:52:00.034Z,9.90
2022-12-03T02:54:45.128Z,9.98
2022-12-03T02:57:30.148Z,10.03
2022-12-03T03:00:16.951Z,7.40
2022-12-03T03:03:04.649Z,8.77
2022-12-03T03:05:50.550Z,9.00
2022-12-03T03:08:37.683Z,8.55
2022-12-03T03:11:23.933Z,6.97
2022-12-03T03:14:09.318Z,9.10
2022-12-03T03:16:56.099Z,12.75
2022-12-03T03:19:41.999Z,7.68
2022-12-03T03:22:35.011Z,6.28
2022-12-03T03:25:24.625Z,10.53
2022-12-03T03:28:10.211Z,11.48
2022-12-03T03:30:56.496Z,9.93
2022-12-03T03:33:43.798Z,13.98
2022-12-03T03:36:28.785Z,11.57
2022-12-03T03:39:13.988Z,11.87
2022-12-03T03:41:58.959Z,11.00
2022-12-03T03:44:44.368Z,10.23
2022-12-03T03:47:29.306Z,12.68
2022-12-03T03:50:14.989Z,9.43
2022-12-03T03:53:02.433Z,13.00
2022-12-03T03:55:48.121Z,10.20
2022-12-03T03:58:33.249Z,14.40
2022-12-03T04:01:18.401Z,12.10
2022-12-03T04:04:03.713Z,10.65
2022-12-03T04:06:49.049Z,12.10
2022-12-03T04:09:33.870Z,4.38
2022-12-03T04:12:37.115Z,8.50
2022-12-03T04:15:22.413Z,10.65
2022-12-03T04:18:25.778Z,6.00
2022-12-03T04:21:36.903Z,5.77
2022-12-03T04:24:21.946Z,9.68
2022-12-03T04:27:27.073Z,7.00
2022-12-03T04:30:12.486Z,10.25
2022-12-03T04:33:15.706Z,10.50
2022-12-03T04:36:00.786Z,10.77
2022-12-03T04:38:45.909Z,10.65
2022-12-03T04:41:30.999Z,11.93
2022-12-03T04:44:33.793Z,14.07
2022-12-03T04:47:20.586Z,12.45
2022-12-03T04:50:06.478Z,12.80
2022-12-03T04:52:51.390Z,10.73
2022-12-03T04:55:36.369Z,11.93
2022-12-03T04:58:21.262Z,14.23
2022-12-03T05:01:06.490Z,10.32
2022-12-03T05:03:51.674Z,11.43
2022-12-03T05:06:36.895Z,11.80
2022-12-03T05:09:21.824Z,9.07
2022-12-03T05:12:06.978Z,11.43
2022-12-03T05:14:52.297Z,9.85
2022-12-03T05:17:37.611Z,8.23
2022-12-03T05:20:40.895Z,13.85
2022-12-03T05:23:26.036Z,9.55
2022-12-03T05:26:11.522Z,11.07
2022-12-03T05:28:56.309Z,6.75
2022-12-03T05:31:41.489Z,11.37
2022-12-03T05:34:26.608Z,10.52
2022-12-03T05:37:11.687Z,13.20
2022-12-03T05:39:56.800Z,6.18
2022-12-03T05:42:53.729Z,8.63
2022-12-03T05:45:41.618Z,9.00
2022-12-03T05:48:26.452Z,11.82
2022-12-03T05:51:11.753Z,10.60
2022-12-03T05:53:56.798Z,8.27
2022-12-03T05:56:41.977Z,11.48
2022-12-03T05:59:27.246Z,12.50
2022-12-03T06:02:12.180Z,8.38
2022-12-03T06:04:57.088Z,7.85
2022-12-03T06:07:42.738Z,7.82
2022-12-03T06:10:28.535Z,10.90
2022-12-03T06:13:13.247Z,5.87
2022-12-03T06:15:58.364Z,7.45
2022-12-03T06:18:43.460Z,8.57
2022-12-03T06:21:28.336Z,7.40
2022-12-03T06:24:13.170Z,4.72
2022-12-03T06:26:58.389Z,6.03
2022-12-03T06:29:43.818Z,9.20
2022-12-03T06:32:28.658Z,8.85
2022-12-03T06:35:13.488Z,7.03
2022-12-03T06:37:58.534Z,7.93
2022-12-03T06:40:43.722Z,8.17
2022-12-03T06:43:30.772Z,8.70
2022-12-03T06:46:15.893Z,10.05
2022-12-03T06:49:01.100Z,8.27
2022-12-03T06:51:46.057Z,7.95
2022-12-03T06:54:31.346Z,8.47
2022-12-03T06:57:16.532Z,8.32
2022-12-03T07:00:02.139Z,8.98
2022-12-03T07:02:47.312Z,8.13
2022-12-03T07:05:32.309Z,11.20
2022-12-03T07:08:17.296Z,10.87
2022-12-03T07:11:02.428Z,11.82
2022-12-03T07:13:47.517Z,7.82
2022-12-03T07:16:33.183Z,9.45
2022-12-03T07:19:18.517Z,7.80
2022-12-03T07:22:03.837Z,8.20
2022-12-03T07:24:48.934Z,7.85
2022-12-03T07:27:34.035Z,9.25
2022-12-03T07:30:19.151Z,9.90
2022-12-03T07:33:04.419Z,9.07
2022-12-03T07:35:49.613Z,8.70
2022-12-03T07:38:34.698Z,8.55
2022-12-03T07:41:19.643Z,8.52
2022-12-03T07:44:10.675Z,6.88
2022-12-03T07:46:59.191Z,9.90
2022-12-03T07:49:44.275Z,10.43
2022-12-03T07:52:29.507Z,9.95
2022-12-03T07:55:14.466Z,7.78
2022-12-03T07:57:59.618Z,11.32
2022-12-03T08:00:44.593Z,7.93
2022-12-03T08:03:29.601Z,7.07
2022-12-03T08:06:14.342Z,6.88
2022-12-03T08:08:59.581Z,8.35
2022-12-03T08:11:48.015Z,6.82
2022-12-03T08:14:33.016Z,8.43
2022-12-03T08:17:19.676Z,9.00
2022-12-03T08:20:19.712Z,8.57
2022-12-03T08:23:12.872Z,9.05
2022-12-03T08:26:01.941Z,9.38
2022-12-03T08:28:46.907Z,10.18
2022-12-03T08:31:33.704Z,5.70
2022-12-03T08:34:26.074Z,10.93
2022-12-03T08:37:17.080Z,8.15
2022-12-03T08:40:01.969Z,9.73
2022-12-03T08:42:47.265Z,10.05
2022-12-03T08:45:39.530Z,7.37
2022-12-03T08:48:29.557Z,3.88
2022-12-03T08:51:25.401Z,7.38
2022-12-03T08:54:19.267Z,6.68
2022-12-03T08:57:31.513Z,6.47
2022-12-03T09:00:22.772Z,9.00
2022-12-03T09:03:15.629Z,7.15
2022-12-03T09:06:00.663Z,6.68
2022-12-03T09:08:46.087Z,5.82
2022-12-03T09:11:30.909Z,7.50
2022-12-03T09:14:18.944Z,8.00
2022-12-03T09:17:04.173Z,9.85
2022-12-03T09:19:49.350Z,6.40
2022-12-03T09:22:34.450Z,9.52
2022-12-03T09:25:19.398Z,9.88
2022-12-03T09:28:04.621Z,10.87
2022-12-03T09:30:49.676Z,8.75
2022-12-03T09:33:35.073Z,8.27
2022-12-03T09:36:20.175Z,6.90
2022-12-03T09:39:05.407Z,8.98
2022-12-03T09:41:50.673Z,8.30
2022-12-03T09:44:37.493Z,3.17
2022-12-03T09:47:23.034Z,10.80
2022-12-03T09:50:13.544Z,10.32
2022-12-03T09:53:01.862Z,10.65
2022-12-03T09:55:49.086Z,9.67
2022-12-03T09:58:35.075Z,8.07
2022-12-03T10:01:20.448Z,8.25
2022-12-03T10:04:05.636Z,10.93
2022-12-03T10:06:51.101Z,7.93
2022-12-03T10:09:35.914Z,5.73
2022-12-03T10:12:24.851Z,6.95
2022-12-03T10:15:13.815Z,9.88
2022-12-03T10:18:01.294Z,5.95
2022-12-03T10:20:47.011Z,9.52
2022-12-03T10:23:32.120Z,10.73
2022-12-03T10:26:17.182Z,9.65
2022-12-03T10:29:01.989Z,8.13
2022-12-03T10:31:55.006Z,11.45
2022-12-03T10:34:41.826Z,8.20
2022-12-03T10:37:26.666Z,9.27
2022-12-03T10:40:11.989Z,7.43
2022-12-03T10:43:19.063Z,10.75
2022-12-03T10:46:04.849Z,10.15
2022-12-03T10:49:09.114Z,10.48
2022-12-03T10:51:55.186Z,10.27
2022-12-03T10:54:40.210Z,9.95
2022-12-03T10:57:25.494Z,10.75
2022-12-03T11:00:20.499Z,7.88
2022-12-03T11:03:17.345Z,10.50
2022-12-03T11:06:02.786Z,11.43
2022-12-03T11:08:56.512Z,10.88
2022-12-03T11:11:42.640Z,7.53
2022-12-03T11:14:54.426Z,11.07
2022-12-03T11:17:51.127Z,7.85
2022-12-03T11:20:42.329Z,12.80
2022-12-03T11:23:45.460Z,10.73
2022-12-03T11:26:30.219Z,9.18
2022-12-03T11:29:15.349Z,11.07
2022-12-03T11:32:00.549Z,10.95
2022-12-03T11:34:45.682Z,11.00
2022-12-03T11:37:31.119Z,12.35
2022-12-03T11:40:16.088Z,9.80
2022-12-03T11:43:01.282Z,15.05
2022-12-03T11:45:46.315Z,12.07
2022-12-03T11:48:44.189Z,12.57
2022-12-03T11:51:30.008Z,14.55
2022-12-03T11:54:21.157Z,7.15
2022-12-03T11:57:26.598Z,7.63
2022-12-03T12:00:19.776Z,9.00
2022-12-03T12:03:04.622Z,11.13
2022-12-03T12:06:14.151Z,14.75
2022-12-03T12:08:59.790Z,12.82
2022-12-03T12:11:44.599Z,10.80
2022-12-03T12:14:29.867Z,6.53
2022-12-03T12:17:35.533Z,9.33
2022-12-03T12:20:27.340Z,5.63
2022-12-03T12:23:27.714Z,12.23
2022-12-03T12:26:12.785Z,12.25
2022-12-03T12:28:57.833Z,14.55
2022-12-03T12:31:42.975Z,10.77
2022-12-03T12:34:28.164Z,11.80
2022-12-03T12:37:26.053Z,14.73
2022-12-03T12:40:15.453Z,9.85
2022-12-03T12:43:15.273Z,7.97
2022-12-03T12:46:45.518Z,8.47
2022-12-03T12:49:15.774Z,10.07
2022-12-03T12:52:01.164Z,14.63
2022-12-03T12:54:45.922Z,14.90
2022-12-03T12:57:31.327Z,13.55
2022-12-03T13:00:19.139Z,15.03
2022-12-03T13:03:05.200Z,8.50
2022-12-03T13:05:52.501Z,11.68
2022-12-03T13:08:40.398Z,13.48
2022-12-03T13:11:25.344Z,10.57
2022-12-03T13:14:15.300Z,17.13
2022-12-03T13:17:10.821Z,13.82
2022-12-03T13:20:06.675Z,12.30
2022-12-03T13:22:52.593Z,13.70
2022-12-03T13:25:59.332Z,13.85
2022-12-03T13:28:43.313Z,17.27
2022-12-03T13:31:33.223Z,16.38
2022-12-03T13:34:24.500Z,15.38
2022-12-03T13:37:15.830Z,15.50
2022-12-03T13:40:12.005Z,9.30
2022-12-03T13:42:57.733Z,11.60
2022-12-03T13:45:49.029Z,15.00
2022-12-03T13:48:36.998Z,18.95
2022-12-03T13:51:27.438Z,19.75
2022-12-03T13:54:22.685Z,20.67
2022-12-03T13:57:07.600Z,14.03
2022-12-03T13:59:52.722Z,12.82
2022-12-03T14:02:38.046Z,16.00
2022-12-03T14:05:23.129Z,12.05
2022-12-03T14:08:07.937Z,12.60
2022-12-03T14:10:58.568Z,11.57
2022-12-03T14:13:45.350Z,14.40
2022-12-03T14:16:30.407Z,16.80
2022-12-03T14:19:15.581Z,14.55
2022-12-03T14:22:00.411Z,8.77
2022-12-03T14:24:45.471Z,14.90
2022-12-03T14:27:30.696Z,15.45
2022-12-03T14:30:15.656Z,19.75
2022-12-03T14:33:00.557Z,18.92
2022-12-03T14:35:45.669Z,16.15
2022-12-03T14:38:30.920Z,16.47
2022-12-03T14:41:34.251Z,21.95
2022-12-03T14:44:21.811Z,17.98
2022-12-03T14:47:06.745Z,12.85
2022-12-03T14:49:52.691Z,16.25
2022-12-03T14:52:38.357Z,14.63
2022-12-03T14:55:23.282Z,11.88
2022-12-03T14:58:08.379Z,11.85
2022-12-03T15:00:53.613Z,16.75
2022-12-03T15:03:38.558Z,19.52
2022-12-03T15:06:23.615Z,19.30
2022-12-03T15:09:08.652Z,16.95
2022-12-03T15:11:54.113Z,12.55
2022-12-03T15:14:39.321Z,18.92
2022-12-03T15:17:31.215Z,20.85
2022-12-03T15:20:16.865Z,15.83
2022-12-03T15:23:01.981Z,16.50
2022-12-03T15:25:47.238Z,16.52
2022-12-03T15:28:32.130Z,10.80
2022-12-03T15:31:17.054Z,19.42
2022-12-03T15:34:02.254Z,21.23
2022-12-03T15:36:47.406Z,15.68
2022-12-03T15:39:33.229Z,16.58
2022-12-03T15:42:18.426Z,10.23
2022-12-03T15:45:05.201Z,16.20
2022-12-03T15:47:50.110Z,24.10
2022-12-03T15:50:39.936Z,19.70
2022-12-03T15:53:25.413Z,17.77
2022-12-03T15:56:11.938Z,14.82
2022-12-03T15:58:56.957Z,14.48
2022-12-03T16:01:42.021Z,17.13
2022-12-03T16:04:27.040Z,17.77
2022-12-03T16:07:11.888Z,20.13
2022-12-03T16:09:57.240Z,18.08
2022-12-03T16:12:42.218Z,19.80
2022-12-03T16:15:27.614Z,15.63
2022-12-03T16:18:12.670Z,17.08
2022-12-03T16:20:57.803Z,16.23
2022-12-03T16:23:42.991Z,26.65
2022-12-03T16:26:28.085Z,19.98
2022-12-03T16:29:13.071Z,17.43
2022-12-03T16:31:58.215Z,19.60
2022-12-03T16:34:43.254Z,19.88
2022-12-03T16:37:28.365Z,19.13
2022-12-03T16:40:13.246Z,20.55
2022-12-03T16:42:58.307Z,21.73
2022-12-03T16:45:45.863Z,19.20
2022-12-03T16:48:31.050Z,17.13
2022-12-03T16:51:16.865Z,22.27
2022-12-03T16:54:01.668Z,17.98
2022-12-03T16:56:46.779Z,15.70
2022-12-03T16:59:31.856Z,18.98
2022-12-03T17:02:16.961Z,16.08
2022-12-03T17:05:02.075Z,15.80
2022-12-03T17:07:47.193Z,18.25
2022-12-03T17:10:32.355Z,13.17
2022-12-03T17:13:17.234Z,17.58
2022-12-03T17:16:02.586Z,19.35
2022-12-03T17:18:47.611Z,19.70
2022-12-03T17:21:35.001Z,13.95
2022-12-03T17:24:21.228Z,14.57
2022-12-03T17:27:07.770Z,17.85
2022-12-03T17:29:53.046Z,16.27
2022-12-03T17:32:38.474Z,18.05
2022-12-03T17:35:23.344Z,16.67
2022-12-03T17:38:09.001Z,20.13
2022-12-03T17:40:54.226Z,16.05
2022-12-03T17:43:39.386Z,16.75
2022-12-03T17:46:24.225Z,16.73
2022-12-03T17:49:09.307Z,17.10
2022-12-03T17:51:54.445Z,17.97
2022-12-03T17:55:08.329Z,18.25
2022-12-03T17:57:44.947Z,18.20
2022-12-03T18:00:30.190Z,9.40
2022-12-03T18:03:15.104Z,18.25
2022-12-03T18:06:00.367Z,18.67
2022-12-03T18:08:45.109Z,17.52
2022-12-03T18:11:30.778Z,7.35
2022-12-03T18:14:15.595Z,15.23
2022-12-03T18:17:00.871Z,14.35
2022-12-03T18:19:45.892Z,13.90
2022-12-03T18:22:31.428Z,9.30
2022-12-03T18:25:17.945Z,13.50
2022-12-03T18:28:02.835Z,18.48
2022-12-03T18:30:52.437Z,15.65
2022-12-03T18:33:37.837Z,16.53
2022-12-03T18:36:29.839Z,12.95
2022-12-03T18:39:27.342Z,11.02
2022-12-03T18:42:17.501Z,15.07
2022-12-03T18:45:02.900Z,20.50
2022-12-03T18:47:47.819Z,12.73
2022-12-03T18:50:32.878Z,11.25
2022-12-03T18:53:18.927Z,13.00
2022-12-03T18:56:03.875Z,10.82
2022-12-03T18:58:49.072Z,11.70
2022-12-03T19:01:35.186Z,15.83
2022-12-03T19:04:20.138Z,9.48
2022-12-03T19:07:05.019Z,11.45
2022-12-03T19:09:50.209Z,15.20
2022-12-03T19:12:35.481Z,10.57
2022-12-03T19:15:20.858Z,12.20
2022-12-03T19:18:07.279Z,10.05
2022-12-03T19:20:52.206Z,15.18
2022-12-03T19:23:37.758Z,15.23
2022-12-03T19:26:22.542Z,11.18
2022-12-03T19:29:08.469Z,12.47
2022-12-03T19:31:53.752Z,13.52
2022-12-03T19:34:38.975Z,11.90
2022-12-03T19:37:24.588Z,14.15
2022-12-03T19:40:10.295Z,16.67
2022-12-03T19:42:55.074Z,14.03
2022-12-03T19:45:40.217Z,15.25
2022-12-03T19:48:25.490Z,14.88
2022-12-03T19:51:33.145Z,13.05
2022-12-03T19:54:16.350Z,9.65
2022-12-03T19:57:01.556Z,9.47
2022-12-03T19:59:46.851Z,13.63
2022-12-03T20:02:31.814Z,9.63
2022-12-03T20:05:17.102Z,15.75
2022-12-03T20:08:02.386Z,13.88
2022-12-03T20:10:47.284Z,8.77
2022-12-03T20:13:36.432Z,11.18
2022-12-03T20:16:22.338Z,13.32
2022-12-03T20:19:10.708Z,12.15
2022-12-03T20:22:02.062Z,11.25
2022-12-03T20:24:47.852Z,12.50
2022-12-03T20:27:33.372Z,10.07
2022-12-03T20:30:19.094Z,14.38
2022-12-03T20:33:04.077Z,11.38
2022-12-03T20:35:53.710Z,13.15
2022-12-03T20:38:38.937Z,12.87
2022-12-03T20:41:24.605Z,10.65
2022-12-03T20:44:09.905Z,14.80
2022-12-03T20:46:55.109Z,13.50
2022-12-03T20:49:40.210Z,10.63
2022-12-03T20:52:25.374Z,9.83
2022-12-03T20:55:10.115Z,10.82
2022-12-03T20:57:55.223Z,18.15
2022-12-03T21:00:40.381Z,12.93
2022-12-03T21:03:25.529Z,10.82
2022-12-03T21:06:11.088Z,14.87
2022-12-03T21:08:57.529Z,12.95
2022-12-03T21:11:43.521Z,14.98
2022-12-03T21:14:28.386Z,15.18
2022-12-03T21:17:13.505Z,19.25
2022-12-03T21:19:58.150Z,13.80
2022-12-03T21:22:43.350Z,16.67
2022-12-03T21:25:28.510Z,13.02
2022-12-03T21:28:13.345Z,8.35
2022-12-03T21:31:03.630Z,15.18
2022-12-03T21:33:48.663Z,16.13
2022-12-03T21:36:33.985Z,15.75
2022-12-03T21:39:19.297Z,19.55
2022-12-03T21:42:33.675Z,15.40
2022-12-03T21:45:09.503Z,13.15
2022-12-03T21:47:54.492Z,12.90
2022-12-03T21:50:39.468Z,16.52
2022-12-03T21:53:24.310Z,16.10
2022-12-03T21:56:15.486Z,17.02
2022-12-03T21:59:00.331Z,16.17
2022-12-03T22:01:47.257Z,17.57
2022-12-03T22:04:32.911Z,12.95
2022-12-03T22:07:17.901Z,14.32
2022-12-03T22:10:04.777Z,18.10
2022-12-03T22:12:49.952Z,17.13
2022-12-03T22:15:39.912Z,15.23
2022-12-03T22:18:25.183Z,12.68
2022-12-03T22:21:13.453Z,10.32
2022-12-03T22:23:58.305Z,38.30
2022-12-03T22:26:43.469Z,13.55
2022-12-03T22:29:28.577Z,14.40
2022-12-03T22:32:13.459Z,13.65
2022-12-03T22:34:58.623Z,15.13
2022-12-03T22:37:43.665Z,17.05
2022-12-03T22:40:28.911Z,16.27
2022-12-03T22:43:13.679Z,20.60
2022-12-03T22:45:58.821Z,15.65
2022-12-03T22:48:46.574Z,13.13
2022-12-03T22:51:31.410Z,17.27
2022-12-03T22:54:20.891Z,15.18
2022-12-03T22:57:08.812Z,16.60
2022-12-03T22:59:54.108Z,17.10
2022-12-03T23:02:39.642Z,17.42
2022-12-03T23:05:24.522Z,19.17
2022-12-03T23:08:15.956Z,14.80
2022-12-03T23:11:00.778Z,8.63
2022-12-03T23:13:46.160Z,12.90
2022-12-03T23:16:32.982Z,13.25
2022-12-03T23:19:19.755Z,15.45
2022-12-03T23:22:04.554Z,15.20
2022-12-03T23:24:49.695Z,15.23
2022-12-03T23:27:34.801Z,18.25
2022-12-03T23:30:19.822Z,19.27
2022-12-03T23:33:05.681Z,14.02
2022-12-03T23:35:50.718Z,18.45
2022-12-03T23:38:35.535Z,16.17
2022-12-03T23:41:22.491Z,15.68
2022-12-03T23:44:07.728Z,15.23
2022-12-03T23:46:53.069Z,18.88
2022-12-03T23:49:38.098Z,3.83
2022-12-03T23:52:23.346Z,13.50
2022-12-03T23:55:09.245Z,18.48
2022-12-03T23:57:54.329Z,17.63
